sensor_id;sensor_type;location;lat;lon;timestamp;P1;durP1;ratioP1;P2;durP2;ratioP2
11524;SDS011;5819;49.648;8.330;2022-08-21T00:00:35;7.82;;;3.22;;
11524;SDS011;5819;49.648;8.330;2022-08-21T00:03:09;6.63;;;3.05;;
11524;SDS011;5819;49.648;8.330;2022-08-21T00:05:45;5.35;;;3.47;;
11524;SDS011;5819;49.648;8.330;2022-08-21T00:08:16;6.03;;;3.20;;
11524;SDS011;5819;49.648;8.330;2022-08-21T00:10:46;9.88;;;3.10;;
11524;SDS011;5819;49.648;8.330;2022-08-21T00:13:16;5.68;;;3.40;;
11524;SDS011;5819;49.648;8.330;2022-08-21T00:15:46;8.00;;;3.65;;
11524;SDS011;5819;49.648;8.330;2022-08-21T00:18:16;6.25;;;3.75;;
11524;SDS011;5819;49.648;8.330;2022-08-21T00:20:45;5.38;;;3.33;;
11524;SDS011;5819;49.648;8.330;2022-08-21T00:23:14;7.75;;;3.60;;
11524;SDS011;5819;49.648;8.330;2022-08-21T00:25:43;4.65;;;2.75;;
11524;SDS011;5819;49.648;8.330;2022-08-21T00:28:13;7.15;;;3.50;;
11524;SDS011;5819;49.648;8.330;2022-08-21T00:30:42;5.55;;;3.10;;
11524;SDS011;5819;49.648;8.330;2022-08-21T00:33:11;8.20;;;3.70;;
11524;SDS011;5819;49.648;8.330;2022-08-21T00:35:40;6.25;;;3.60;;
11524;SDS011;5819;49.648;8.330;2022-08-21T00:38:10;10.15;;;4.00;;
11524;SDS011;5819;49.648;8.330;2022-08-21T00:40:40;7.38;;;3.70;;
11524;SDS011;5819;49.648;8.330;2022-08-21T00:43:13;7.97;;;3.55;;
11524;SDS011;5819;49.648;8.330;2022-08-21T00:45:42;7.70;;;3.90;;
11524;SDS011;5819;49.648;8.330;2022-08-21T00:48:10;6.63;;;3.28;;
11524;SDS011;5819;49.648;8.330;2022-08-21T00:50:40;9.35;;;3.72;;
11524;SDS011;5819;49.648;8.330;2022-08-21T00:53:11;8.23;;;3.45;;
11524;SDS011;5819;49.648;8.330;2022-08-21T00:55:41;6.97;;;3.42;;
11524;SDS011;5819;49.648;8.330;2022-08-21T00:58:09;9.60;;;3.65;;
11524;SDS011;5819;49.648;8.330;2022-08-21T01:00:43;7.53;;;3.05;;
11524;SDS011;5819;49.648;8.330;2022-08-21T01:03:15;7.78;;;3.70;;
11524;SDS011;5819;49.648;8.330;2022-08-21T01:05:49;7.15;;;3.30;;
11524;SDS011;5819;49.648;8.330;2022-08-21T01:08:18;7.07;;;3.80;;
11524;SDS011;5819;49.648;8.330;2022-08-21T01:10:47;6.13;;;3.45;;
11524;SDS011;5819;49.648;8.330;2022-08-21T01:13:26;7.32;;;3.50;;
11524;SDS011;5819;49.648;8.330;2022-08-21T01:15:58;7.25;;;3.90;;
11524;SDS011;5819;49.648;8.330;2022-08-21T01:18:28;11.00;;;4.28;;
11524;SDS011;5819;49.648;8.330;2022-08-21T01:21:05;9.45;;;4.13;;
11524;SDS011;5819;49.648;8.330;2022-08-21T01:23:39;8.93;;;3.53;;
11524;SDS011;5819;49.648;8.330;2022-08-21T01:26:09;8.35;;;4.28;;
11524;SDS011;5819;49.648;8.330;2022-08-21T01:28:40;7.85;;;4.00;;
11524;SDS011;5819;49.648;8.330;2022-08-21T01:31:17;5.53;;;3.55;;
11524;SDS011;5819;49.648;8.330;2022-08-21T01:33:51;7.60;;;3.90;;
11524;SDS011;5819;49.648;8.330;2022-08-21T01:36:23;6.93;;;3.80;;
11524;SDS011;5819;49.648;8.330;2022-08-21T01:38:51;6.90;;;3.42;;
11524;SDS011;5819;49.648;8.330;2022-08-21T01:41:20;4.85;;;3.53;;
11524;SDS011;5819;49.648;8.330;2022-08-21T01:43:48;6.45;;;3.28;;
11524;SDS011;5819;49.648;8.330;2022-08-21T01:46:18;7.97;;;3.50;;
11524;SDS011;5819;49.648;8.330;2022-08-21T01:48:46;5.82;;;3.00;;
11524;SDS011;5819;49.648;8.330;2022-08-21T01:51:14;7.03;;;3.13;;
11524;SDS011;5819;49.648;8.330;2022-08-21T01:53:44;6.68;;;3.17;;
11524;SDS011;5819;49.648;8.330;2022-08-21T01:56:13;6.53;;;3.15;;
11524;SDS011;5819;49.648;8.330;2022-08-21T01:58:44;7.38;;;3.38;;
11524;SDS011;5819;49.648;8.330;2022-08-21T02:01:14;6.53;;;3.15;;
11524;SDS011;5819;49.648;8.330;2022-08-21T02:03:42;7.32;;;3.80;;
11524;SDS011;5819;49.648;8.330;2022-08-21T02:06:12;7.97;;;3.50;;
11524;SDS011;5819;49.648;8.330;2022-08-21T02:08:45;8.00;;;3.47;;
11524;SDS011;5819;49.648;8.330;2022-08-21T02:11:13;3.50;;;2.60;;
11524;SDS011;5819;49.648;8.330;2022-08-21T02:13:42;7.53;;;3.00;;
11524;SDS011;5819;49.648;8.330;2022-08-21T02:16:11;6.80;;;3.20;;
11524;SDS011;5819;49.648;8.330;2022-08-21T02:18:45;6.45;;;3.30;;
11524;SDS011;5819;49.648;8.330;2022-08-21T02:21:13;4.88;;;3.13;;
11524;SDS011;5819;49.648;8.330;2022-08-21T02:23:42;6.35;;;3.63;;
11524;SDS011;5819;49.648;8.330;2022-08-21T02:26:12;8.55;;;4.00;;
11524;SDS011;5819;49.648;8.330;2022-08-21T02:28:40;8.02;;;3.50;;
11524;SDS011;5819;49.648;8.330;2022-08-21T02:31:09;6.18;;;3.28;;
11524;SDS011;5819;49.648;8.330;2022-08-21T02:33:37;8.18;;;3.40;;
11524;SDS011;5819;49.648;8.330;2022-08-21T02:36:07;6.93;;;3.72;;
11524;SDS011;5819;49.648;8.330;2022-08-21T02:38:36;7.32;;;3.35;;
11524;SDS011;5819;49.648;8.330;2022-08-21T02:41:06;7.10;;;3.25;;
11524;SDS011;5819;49.648;8.330;2022-08-21T02:43:36;5.22;;;3.25;;
11524;SDS011;5819;49.648;8.330;2022-08-21T02:46:09;9.15;;;3.67;;
11524;SDS011;5819;49.648;8.330;2022-08-21T02:48:39;8.75;;;3.53;;
11524;SDS011;5819;49.648;8.330;2022-08-21T02:51:09;7.18;;;3.67;;
11524;SDS011;5819;49.648;8.330;2022-08-21T02:53:39;8.85;;;3.95;;
11524;SDS011;5819;49.648;8.330;2022-08-21T02:56:08;6.07;;;3.00;;
11524;SDS011;5819;49.648;8.330;2022-08-21T02:58:41;8.25;;;3.70;;
11524;SDS011;5819;49.648;8.330;2022-08-21T03:01:11;8.15;;;3.67;;
11524;SDS011;5819;49.648;8.330;2022-08-21T03:03:41;9.32;;;3.60;;
11524;SDS011;5819;49.648;8.330;2022-08-21T03:06:11;5.28;;;2.97;;
11524;SDS011;5819;49.648;8.330;2022-08-21T03:08:41;7.43;;;3.60;;
11524;SDS011;5819;49.648;8.330;2022-08-21T03:11:11;5.80;;;3.28;;
11524;SDS011;5819;49.648;8.330;2022-08-21T03:13:42;6.45;;;3.67;;
11524;SDS011;5819;49.648;8.330;2022-08-21T03:16:11;8.30;;;3.35;;
11524;SDS011;5819;49.648;8.330;2022-08-21T03:18:39;6.57;;;2.90;;
11524;SDS011;5819;49.648;8.330;2022-08-21T03:21:07;6.57;;;3.40;;
11524;SDS011;5819;49.648;8.330;2022-08-21T03:23:35;6.18;;;3.08;;
11524;SDS011;5819;49.648;8.330;2022-08-21T03:26:04;8.18;;;3.35;;
11524;SDS011;5819;49.648;8.330;2022-08-21T03:28:33;5.50;;;2.80;;
11524;SDS011;5819;49.648;8.330;2022-08-21T03:31:03;8.23;;;2.95;;
11524;SDS011;5819;49.648;8.330;2022-08-21T03:33:32;7.78;;;3.50;;
11524;SDS011;5819;49.648;8.330;2022-08-21T03:36:03;8.80;;;3.60;;
11524;SDS011;5819;49.648;8.330;2022-08-21T03:38:33;8.38;;;3.55;;
11524;SDS011;5819;49.648;8.330;2022-08-21T03:41:02;4.85;;;3.08;;
11524;SDS011;5819;49.648;8.330;2022-08-21T03:43:33;7.70;;;3.30;;
11524;SDS011;5819;49.648;8.330;2022-08-21T03:46:04;7.55;;;3.42;;
11524;SDS011;5819;49.648;8.330;2022-08-21T03:48:33;6.53;;;3.28;;
11524;SDS011;5819;49.648;8.330;2022-08-21T03:51:03;8.10;;;3.15;;
11524;SDS011;5819;49.648;8.330;2022-08-21T03:53:32;7.45;;;3.30;;
11524;SDS011;5819;49.648;8.330;2022-08-21T03:56:01;6.03;;;3.15;;
11524;SDS011;5819;49.648;8.330;2022-08-21T03:58:30;6.85;;;3.28;;
11524;SDS011;5819;49.648;8.330;2022-08-21T04:00:59;4.68;;;2.75;;
11524;SDS011;5819;49.648;8.330;2022-08-21T04:03:29;5.25;;;2.83;;
11524;SDS011;5819;49.648;8.330;2022-08-21T04:05:57;7.40;;;3.10;;
11524;SDS011;5819;49.648;8.330;2022-08-21T04:08:25;6.57;;;3.15;;
11524;SDS011;5819;49.648;8.330;2022-08-21T04:10:54;7.28;;;3.50;;
11524;SDS011;5819;49.648;8.330;2022-08-21T04:13:24;6.97;;;3.28;;
11524;SDS011;5819;49.648;8.330;2022-08-21T04:15:54;7.05;;;3.15;;
11524;SDS011;5819;49.648;8.330;2022-08-21T04:18:22;6.32;;;3.28;;
11524;SDS011;5819;49.648;8.330;2022-08-21T04:20:52;5.65;;;3.15;;
11524;SDS011;5819;49.648;8.330;2022-08-21T04:23:24;7.38;;;3.53;;
11524;SDS011;5819;49.648;8.330;2022-08-21T04:25:52;5.97;;;3.20;;
11524;SDS011;5819;49.648;8.330;2022-08-21T04:28:22;10.00;;;3.67;;
11524;SDS011;5819;49.648;8.330;2022-08-21T04:30:55;8.07;;;3.70;;
11524;SDS011;5819;49.648;8.330;2022-08-21T04:33:24;6.95;;;4.05;;
11524;SDS011;5819;49.648;8.330;2022-08-21T04:35:53;4.97;;;2.97;;
11524;SDS011;5819;49.648;8.330;2022-08-21T04:38:21;11.60;;;3.33;;
11524;SDS011;5819;49.648;8.330;2022-08-21T04:40:50;6.15;;;3.13;;
11524;SDS011;5819;49.648;8.330;2022-08-21T04:43:19;8.23;;;3.42;;
11524;SDS011;5819;49.648;8.330;2022-08-21T04:45:50;9.05;;;3.45;;
11524;SDS011;5819;49.648;8.330;2022-08-21T04:48:20;5.47;;;3.35;;
11524;SDS011;5819;49.648;8.330;2022-08-21T04:50:51;8.73;;;3.72;;
11524;SDS011;5819;49.648;8.330;2022-08-21T04:53:24;9.18;;;3.40;;
11524;SDS011;5819;49.648;8.330;2022-08-21T04:55:56;7.28;;;3.67;;
11524;SDS011;5819;49.648;8.330;2022-08-21T04:58:28;5.57;;;3.38;;
11524;SDS011;5819;49.648;8.330;2022-08-21T05:01:00;7.63;;;3.60;;
11524;SDS011;5819;49.648;8.330;2022-08-21T05:03:30;6.32;;;3.45;;
11524;SDS011;5819;49.648;8.330;2022-08-21T05:06:02;8.15;;;3.50;;
11524;SDS011;5819;49.648;8.330;2022-08-21T05:08:32;6.70;;;3.35;;
11524;SDS011;5819;49.648;8.330;2022-08-21T05:11:01;8.52;;;3.40;;
11524;SDS011;5819;49.648;8.330;2022-08-21T05:13:30;6.45;;;3.60;;
11524;SDS011;5819;49.648;8.330;2022-08-21T05:15:58;6.68;;;3.25;;
11524;SDS011;5819;49.648;8.330;2022-08-21T05:18:26;9.35;;;3.97;;
11524;SDS011;5819;49.648;8.330;2022-08-21T05:20:55;7.45;;;3.70;;
11524;SDS011;5819;49.648;8.330;2022-08-21T05:23:24;6.68;;;3.75;;
11524;SDS011;5819;49.648;8.330;2022-08-21T05:25:53;6.43;;;3.33;;
11524;SDS011;5819;49.648;8.330;2022-08-21T05:28:22;9.63;;;4.60;;
11524;SDS011;5819;49.648;8.330;2022-08-21T05:30:52;8.98;;;4.18;;
11524;SDS011;5819;49.648;8.330;2022-08-21T05:33:21;6.57;;;4.00;;
11524;SDS011;5819;49.648;8.330;2022-08-21T05:35:49;7.20;;;3.85;;
11524;SDS011;5819;49.648;8.330;2022-08-21T05:38:18;7.03;;;3.95;;
11524;SDS011;5819;49.648;8.330;2022-08-21T05:40:48;8.75;;;4.25;;
11524;SDS011;5819;49.648;8.330;2022-08-21T05:43:17;9.02;;;4.28;;
11524;SDS011;5819;49.648;8.330;2022-08-21T05:45:45;8.90;;;4.10;;
11524;SDS011;5819;49.648;8.330;2022-08-21T05:48:14;8.13;;;4.05;;
11524;SDS011;5819;49.648;8.330;2022-08-21T05:50:44;7.88;;;3.83;;
11524;SDS011;5819;49.648;8.330;2022-08-21T05:53:14;6.50;;;3.70;;
11524;SDS011;5819;49.648;8.330;2022-08-21T05:55:43;8.50;;;3.42;;
11524;SDS011;5819;49.648;8.330;2022-08-21T05:58:14;7.80;;;3.55;;
11524;SDS011;5819;49.648;8.330;2022-08-21T06:00:44;7.90;;;3.17;;
11524;SDS011;5819;49.648;8.330;2022-08-21T06:03:14;8.75;;;3.67;;
11524;SDS011;5819;49.648;8.330;2022-08-21T06:05:44;6.50;;;3.22;;
11524;SDS011;5819;49.648;8.330;2022-08-21T06:08:13;7.32;;;3.40;;
11524;SDS011;5819;49.648;8.330;2022-08-21T06:10:42;6.20;;;3.90;;
11524;SDS011;5819;49.648;8.330;2022-08-21T06:13:13;8.18;;;3.80;;
11524;SDS011;5819;49.648;8.330;2022-08-21T06:15:44;7.82;;;3.92;;
11524;SDS011;5819;49.648;8.330;2022-08-21T06:18:13;9.45;;;4.22;;
11524;SDS011;5819;49.648;8.330;2022-08-21T06:20:41;6.78;;;4.07;;
11524;SDS011;5819;49.648;8.330;2022-08-21T06:23:10;7.22;;;3.75;;
11524;SDS011;5819;49.648;8.330;2022-08-21T06:25:38;8.75;;;3.63;;
11524;SDS011;5819;49.648;8.330;2022-08-21T06:28:07;6.95;;;4.30;;
11524;SDS011;5819;49.648;8.330;2022-08-21T06:30:38;6.40;;;3.85;;
11524;SDS011;5819;49.648;8.330;2022-08-21T06:33:07;10.73;;;3.90;;
11524;SDS011;5819;49.648;8.330;2022-08-21T06:35:35;6.22;;;3.65;;
11524;SDS011;5819;49.648;8.330;2022-08-21T06:38:06;8.20;;;3.85;;
11524;SDS011;5819;49.648;8.330;2022-08-21T06:40:36;10.13;;;3.85;;
11524;SDS011;5819;49.648;8.330;2022-08-21T06:43:13;6.90;;;4.28;;
11524;SDS011;5819;49.648;8.330;2022-08-21T06:45:45;11.50;;;7.30;;
11524;SDS011;5819;49.648;8.330;2022-08-21T06:48:13;8.00;;;4.93;;
11524;SDS011;5819;49.648;8.330;2022-08-21T06:50:45;8.25;;;3.92;;
11524;SDS011;5819;49.648;8.330;2022-08-21T06:53:14;7.60;;;4.22;;
11524;SDS011;5819;49.648;8.330;2022-08-21T06:55:45;9.52;;;4.28;;
11524;SDS011;5819;49.648;8.330;2022-08-21T06:58:14;5.68;;;3.60;;
11524;SDS011;5819;49.648;8.330;2022-08-21T07:00:43;9.40;;;3.97;;
11524;SDS011;5819;49.648;8.330;2022-08-21T07:03:17;8.48;;;3.85;;
11524;SDS011;5819;49.648;8.330;2022-08-21T07:05:47;10.38;;;4.50;;
11524;SDS011;5819;49.648;8.330;2022-08-21T07:08:16;8.02;;;3.80;;
11524;SDS011;5819;49.648;8.330;2022-08-21T07:10:45;7.82;;;4.57;;
11524;SDS011;5819;49.648;8.330;2022-08-21T07:13:14;6.70;;;3.40;;
11524;SDS011;5819;49.648;8.330;2022-08-21T07:15:42;9.02;;;3.95;;
11524;SDS011;5819;49.648;8.330;2022-08-21T07:18:12;11.50;;;4.47;;
11524;SDS011;5819;49.648;8.330;2022-08-21T07:20:40;10.38;;;4.32;;
11524;SDS011;5819;49.648;8.330;2022-08-21T07:23:11;17.88;;;9.75;;
11524;SDS011;5819;49.648;8.330;2022-08-21T07:25:43;16.70;;;6.70;;
11524;SDS011;5819;49.648;8.330;2022-08-21T07:28:12;6.97;;;4.07;;
11524;SDS011;5819;49.648;8.330;2022-08-21T07:30:40;7.68;;;5.03;;
11524;SDS011;5819;49.648;8.330;2022-08-21T07:33:09;8.20;;;4.43;;
11524;SDS011;5819;49.648;8.330;2022-08-21T07:35:38;8.18;;;3.80;;
11524;SDS011;5819;49.648;8.330;2022-08-21T07:38:06;7.72;;;3.92;;
11524;SDS011;5819;49.648;8.330;2022-08-21T07:40:35;6.45;;;3.20;;
11524;SDS011;5819;49.648;8.330;2022-08-21T07:43:03;6.50;;;3.95;;
11524;SDS011;5819;49.648;8.330;2022-08-21T07:45:37;8.77;;;3.97;;
11524;SDS011;5819;49.648;8.330;2022-08-21T07:48:05;9.27;;;4.47;;
11524;SDS011;5819;49.648;8.330;2022-08-21T07:50:34;9.77;;;4.35;;
11524;SDS011;5819;49.648;8.330;2022-08-21T07:53:04;10.90;;;5.88;;
11524;SDS011;5819;49.648;8.330;2022-08-21T07:55:34;7.90;;;4.78;;
11524;SDS011;5819;49.648;8.330;2022-08-21T07:58:04;8.82;;;5.38;;
11524;SDS011;5819;49.648;8.330;2022-08-21T08:00:33;11.18;;;6.20;;
11524;SDS011;5819;49.648;8.330;2022-08-21T08:03:01;11.02;;;4.80;;
11524;SDS011;5819;49.648;8.330;2022-08-21T08:05:29;8.40;;;4.60;;
11524;SDS011;5819;49.648;8.330;2022-08-21T08:07:59;9.25;;;5.32;;
11524;SDS011;5819;49.648;8.330;2022-08-21T08:10:28;8.27;;;4.55;;
11524;SDS011;5819;49.648;8.330;2022-08-21T08:12:56;8.85;;;5.05;;
11524;SDS011;5819;49.648;8.330;2022-08-21T08:15:26;7.68;;;4.28;;
11524;SDS011;5819;49.648;8.330;2022-08-21T08:17:57;9.23;;;4.43;;
11524;SDS011;5819;49.648;8.330;2022-08-21T08:20:25;14.27;;;4.80;;
11524;SDS011;5819;49.648;8.330;2022-08-21T08:22:54;6.82;;;4.10;;
11524;SDS011;5819;49.648;8.330;2022-08-21T08:25:24;10.25;;;4.80;;
11524;SDS011;5819;49.648;8.330;2022-08-21T08:28:03;5.68;;;4.10;;
11524;SDS011;5819;49.648;8.330;2022-08-21T08:30:42;8.55;;;4.78;;
11524;SDS011;5819;49.648;8.330;2022-08-21T08:33:11;10.10;;;5.55;;
11524;SDS011;5819;49.648;8.330;2022-08-21T08:35:39;9.52;;;5.03;;
11524;SDS011;5819;49.648;8.330;2022-08-21T08:38:08;10.50;;;4.88;;
11524;SDS011;5819;49.648;8.330;2022-08-21T08:40:38;10.80;;;5.82;;
11524;SDS011;5819;49.648;8.330;2022-08-21T08:43:12;12.63;;;5.97;;
11524;SDS011;5819;49.648;8.330;2022-08-21T08:45:42;11.15;;;5.53;;
11524;SDS011;5819;49.648;8.330;2022-08-21T08:48:14;10.43;;;5.65;;
11524;SDS011;5819;49.648;8.330;2022-08-21T08:50:57;9.43;;;5.13;;
11524;SDS011;5819;49.648;8.330;2022-08-21T08:53:30;9.70;;;5.43;;
11524;SDS011;5819;49.648;8.330;2022-08-21T08:56:03;7.80;;;5.28;;
11524;SDS011;5819;49.648;8.330;2022-08-21T08:58:37;10.30;;;5.72;;
11524;SDS011;5819;49.648;8.330;2022-08-21T09:01:11;11.00;;;5.43;;
11524;SDS011;5819;49.648;8.330;2022-08-21T09:03:43;9.07;;;5.30;;
11524;SDS011;5819;49.648;8.330;2022-08-21T09:06:19;9.48;;;5.55;;
11524;SDS011;5819;49.648;8.330;2022-08-21T09:08:59;8.82;;;5.55;;
11524;SDS011;5819;49.648;8.330;2022-08-21T09:11:37;10.73;;;5.72;;
11524;SDS011;5819;49.648;8.330;2022-08-21T09:14:16;10.77;;;6.05;;
11524;SDS011;5819;49.648;8.330;2022-08-21T09:16:54;11.80;;;5.70;;
11524;SDS011;5819;49.648;8.330;2022-08-21T09:19:36;6.70;;;5.13;;
11524;SDS011;5819;49.648;8.330;2022-08-21T09:22:19;7.43;;;5.40;;
11524;SDS011;5819;49.648;8.330;2022-08-21T09:24:56;10.43;;;5.28;;
11524;SDS011;5819;49.648;8.330;2022-08-21T09:27:35;9.60;;;5.68;;
11524;SDS011;5819;49.648;8.330;2022-08-21T09:30:05;6.38;;;5.00;;
11524;SDS011;5819;49.648;8.330;2022-08-21T09:32:37;8.10;;;5.55;;
11524;SDS011;5819;49.648;8.330;2022-08-21T09:35:07;6.60;;;5.07;;
11524;SDS011;5819;49.648;8.330;2022-08-21T09:37:45;6.90;;;5.10;;
11524;SDS011;5819;49.648;8.330;2022-08-21T09:40:20;6.95;;;4.25;;
11524;SDS011;5819;49.648;8.330;2022-08-21T09:42:58;8.18;;;4.20;;
11524;SDS011;5819;49.648;8.330;2022-08-21T09:45:30;10.27;;;4.25;;
11524;SDS011;5819;49.648;8.330;2022-08-21T09:48:12;7.07;;;3.63;;
11524;SDS011;5819;49.648;8.330;2022-08-21T09:50:42;6.90;;;3.38;;
11524;SDS011;5819;49.648;8.330;2022-08-21T09:53:17;9.82;;;4.53;;
11524;SDS011;5819;49.648;8.330;2022-08-21T09:55:49;7.60;;;4.25;;
11524;SDS011;5819;49.648;8.330;2022-08-21T09:58:37;6.10;;;3.63;;
11524;SDS011;5819;49.648;8.330;2022-08-21T10:01:13;5.53;;;3.63;;
11524;SDS011;5819;49.648;8.330;2022-08-21T10:03:42;8.88;;;3.88;;
11524;SDS011;5819;49.648;8.330;2022-08-21T10:06:19;8.18;;;3.42;;
11524;SDS011;5819;49.648;8.330;2022-08-21T10:08:50;6.38;;;3.40;;
11524;SDS011;5819;49.648;8.330;2022-08-21T10:11:18;18.45;;;13.13;;
11524;SDS011;5819;49.648;8.330;2022-08-21T10:13:56;6.90;;;5.38;;
11524;SDS011;5819;49.648;8.330;2022-08-21T10:16:32;5.10;;;3.35;;
11524;SDS011;5819;49.648;8.330;2022-08-21T10:19:12;6.50;;;3.55;;
11524;SDS011;5819;49.648;8.330;2022-08-21T10:21:53;6.05;;;3.08;;
11524;SDS011;5819;49.648;8.330;2022-08-21T10:24:29;10.85;;;3.60;;
11524;SDS011;5819;49.648;8.330;2022-08-21T10:27:06;7.30;;;3.13;;
11524;SDS011;5819;49.648;8.330;2022-08-21T10:29:45;8.07;;;3.50;;
11524;SDS011;5819;49.648;8.330;2022-08-21T10:32:34;5.57;;;3.50;;
11524;SDS011;5819;49.648;8.330;2022-08-21T10:35:19;7.85;;;3.83;;
11524;SDS011;5819;49.648;8.330;2022-08-21T10:37:57;6.38;;;3.92;;
11524;SDS011;5819;49.648;8.330;2022-08-21T10:41:05;8.80;;;4.65;;
11524;SDS011;5819;49.648;8.330;2022-08-21T10:43:44;8.80;;;3.85;;
11524;SDS011;5819;49.648;8.330;2022-08-21T10:46:22;8.40;;;4.03;;
11524;SDS011;5819;49.648;8.330;2022-08-21T10:49:03;8.80;;;3.85;;
11524;SDS011;5819;49.648;8.330;2022-08-21T10:51:42;9.63;;;4.50;;
11524;SDS011;5819;49.648;8.330;2022-08-21T10:54:22;6.78;;;3.70;;
11524;SDS011;5819;49.648;8.330;2022-08-21T10:57:00;12.75;;;3.90;;
11524;SDS011;5819;49.648;8.330;2022-08-21T10:59:38;7.47;;;3.50;;
11524;SDS011;5819;49.648;8.330;2022-08-21T11:02:11;5.50;;;3.60;;
11524;SDS011;5819;49.648;8.330;2022-08-21T11:04:45;5.45;;;3.20;;
11524;SDS011;5819;49.648;8.330;2022-08-21T11:07:21;4.70;;;3.30;;
11524;SDS011;5819;49.648;8.330;2022-08-21T11:10:03;6.65;;;3.40;;
11524;SDS011;5819;49.648;8.330;2022-08-21T11:12:46;5.47;;;3.47;;
11524;SDS011;5819;49.648;8.330;2022-08-21T11:15:32;6.57;;;3.80;;
11524;SDS011;5819;49.648;8.330;2022-08-21T11:18:10;3.85;;;3.17;;
11524;SDS011;5819;49.648;8.330;2022-08-21T11:20:54;8.77;;;3.58;;
11524;SDS011;5819;49.648;8.330;2022-08-21T11:23:30;7.13;;;3.45;;
11524;SDS011;5819;49.648;8.330;2022-08-21T11:26:05;6.43;;;3.10;;
11524;SDS011;5819;49.648;8.330;2022-08-21T11:28:38;5.00;;;3.15;;
11524;SDS011;5819;49.648;8.330;2022-08-21T11:31:17;4.20;;;3.10;;
11524;SDS011;5819;49.648;8.330;2022-08-21T11:34:00;5.65;;;2.83;;
11524;SDS011;5819;49.648;8.330;2022-08-21T11:36:42;6.60;;;3.60;;
11524;SDS011;5819;49.648;8.330;2022-08-21T11:39:19;6.85;;;2.83;;
11524;SDS011;5819;49.648;8.330;2022-08-21T11:41:54;5.38;;;2.90;;
11524;SDS011;5819;49.648;8.330;2022-08-21T11:44:38;5.32;;;3.10;;
11524;SDS011;5819;49.648;8.330;2022-08-21T11:47:12;3.72;;;2.85;;
11524;SDS011;5819;49.648;8.330;2022-08-21T11:49:49;5.18;;;3.08;;
11524;SDS011;5819;49.648;8.330;2022-08-21T11:52:31;7.95;;;3.30;;
11524;SDS011;5819;49.648;8.330;2022-08-21T11:55:04;4.95;;;3.00;;
11524;SDS011;5819;49.648;8.330;2022-08-21T11:57:37;4.70;;;2.97;;
11524;SDS011;5819;49.648;8.330;2022-08-21T12:00:13;7.38;;;3.08;;
11524;SDS011;5819;49.648;8.330;2022-08-21T12:02:48;7.28;;;3.10;;
11524;SDS011;5819;49.648;8.330;2022-08-21T12:05:23;6.40;;;2.92;;
11524;SDS011;5819;49.648;8.330;2022-08-21T12:08:09;4.93;;;2.90;;
11524;SDS011;5819;49.648;8.330;2022-08-21T12:10:40;7.07;;;3.70;;
11524;SDS011;5819;49.648;8.330;2022-08-21T12:13:22;6.30;;;3.03;;
11524;SDS011;5819;49.648;8.330;2022-08-21T12:16:08;5.03;;;3.13;;
11524;SDS011;5819;49.648;8.330;2022-08-21T12:18:39;7.45;;;3.20;;
11524;SDS011;5819;49.648;8.330;2022-08-21T12:21:19;7.00;;;2.85;;
11524;SDS011;5819;49.648;8.330;2022-08-21T12:23:59;6.97;;;3.60;;
11524;SDS011;5819;49.648;8.330;2022-08-21T12:26:30;5.07;;;3.13;;
11524;SDS011;5819;49.648;8.330;2022-08-21T12:31:52;7.20;;;3.53;;
11524;SDS011;5819;49.648;8.330;2022-08-21T12:34:25;6.43;;;3.35;;
11524;SDS011;5819;49.648;8.330;2022-08-21T12:37:02;6.00;;;3.20;;
11524;SDS011;5819;49.648;8.330;2022-08-21T12:39:36;6.43;;;3.20;;
11524;SDS011;5819;49.648;8.330;2022-08-21T12:42:11;4.88;;;3.05;;
11524;SDS011;5819;49.648;8.330;2022-08-21T12:44:45;4.93;;;2.92;;
11524;SDS011;5819;49.648;8.330;2022-08-21T12:47:21;3.80;;;2.92;;
11524;SDS011;5819;49.648;8.330;2022-08-21T12:49:56;5.97;;;3.20;;
11524;SDS011;5819;49.648;8.330;2022-08-21T12:52:32;4.13;;;2.90;;
11524;SDS011;5819;49.648;8.330;2022-08-21T12:55:07;7.72;;;3.00;;
11524;SDS011;5819;49.648;8.330;2022-08-21T12:57:39;4.57;;;2.80;;
11524;SDS011;5819;49.648;8.330;2022-08-21T13:00:10;5.03;;;2.70;;
11524;SDS011;5819;49.648;8.330;2022-08-21T13:02:42;5.78;;;2.83;;
11524;SDS011;5819;49.648;8.330;2022-08-21T13:05:29;5.47;;;2.55;;
11524;SDS011;5819;49.648;8.330;2022-08-21T13:07:59;5.47;;;3.35;;
11524;SDS011;5819;49.648;8.330;2022-08-21T13:10:33;5.78;;;3.15;;
11524;SDS011;5819;49.648;8.330;2022-08-21T13:13:04;4.40;;;2.70;;
11524;SDS011;5819;49.648;8.330;2022-08-21T13:15:39;7.38;;;3.00;;
11524;SDS011;5819;49.648;8.330;2022-08-21T13:18:19;4.72;;;2.97;;
11524;SDS011;5819;49.648;8.330;2022-08-21T13:20:49;7.30;;;3.08;;
11524;SDS011;5819;49.648;8.330;2022-08-21T13:23:20;6.65;;;3.00;;
11524;SDS011;5819;49.648;8.330;2022-08-21T13:25:52;6.78;;;2.55;;
11524;SDS011;5819;49.648;8.330;2022-08-21T13:28:21;3.63;;;2.65;;
11524;SDS011;5819;49.648;8.330;2022-08-21T13:30:50;8.98;;;5.55;;
11524;SDS011;5819;49.648;8.330;2022-08-21T13:33:23;9.13;;;3.70;;
11524;SDS011;5819;49.648;8.330;2022-08-21T13:36:04;6.15;;;2.85;;
11524;SDS011;5819;49.648;8.330;2022-08-21T13:38:36;4.00;;;2.80;;
11524;SDS011;5819;49.648;8.330;2022-08-21T13:41:11;5.15;;;3.13;;
11524;SDS011;5819;49.648;8.330;2022-08-21T13:43:48;5.18;;;2.95;;
11524;SDS011;5819;49.648;8.330;2022-08-21T13:46:17;6.07;;;3.08;;
11524;SDS011;5819;49.648;8.330;2022-08-21T13:48:49;5.15;;;3.03;;
11524;SDS011;5819;49.648;8.330;2022-08-21T13:51:18;5.25;;;3.00;;
11524;SDS011;5819;49.648;8.330;2022-08-21T13:53:47;6.63;;;2.90;;
11524;SDS011;5819;49.648;8.330;2022-08-21T13:56:23;8.85;;;2.97;;
11524;SDS011;5819;49.648;8.330;2022-08-21T13:58:54;4.90;;;2.80;;
11524;SDS011;5819;49.648;8.330;2022-08-21T14:01:25;4.68;;;2.90;;
11524;SDS011;5819;49.648;8.330;2022-08-21T14:03:56;6.32;;;2.85;;
11524;SDS011;5819;49.648;8.330;2022-08-21T14:06:34;7.05;;;3.30;;
11524;SDS011;5819;49.648;8.330;2022-08-21T14:09:07;4.75;;;2.60;;
11524;SDS011;5819;49.648;8.330;2022-08-21T14:11:38;8.50;;;2.92;;
11524;SDS011;5819;49.648;8.330;2022-08-21T14:14:12;5.07;;;2.60;;
11524;SDS011;5819;49.648;8.330;2022-08-21T14:16:52;4.70;;;2.97;;
11524;SDS011;5819;49.648;8.330;2022-08-21T14:19:22;5.70;;;2.70;;
11524;SDS011;5819;49.648;8.330;2022-08-21T14:21:52;5.50;;;2.72;;
11524;SDS011;5819;49.648;8.330;2022-08-21T14:24:25;7.30;;;2.80;;
11524;SDS011;5819;49.648;8.330;2022-08-21T14:26:57;5.95;;;3.20;;
11524;SDS011;5819;49.648;8.330;2022-08-21T14:29:32;7.65;;;2.60;;
11524;SDS011;5819;49.648;8.330;2022-08-21T14:32:08;4.47;;;2.60;;
11524;SDS011;5819;49.648;8.330;2022-08-21T14:34:50;4.35;;;2.45;;
11524;SDS011;5819;49.648;8.330;2022-08-21T14:37:20;6.28;;;2.53;;
11524;SDS011;5819;49.648;8.330;2022-08-21T14:39:48;3.88;;;2.67;;
11524;SDS011;5819;49.648;8.330;2022-08-21T14:42:18;4.55;;;2.60;;
11524;SDS011;5819;49.648;8.330;2022-08-21T14:44:47;4.97;;;2.55;;
11524;SDS011;5819;49.648;8.330;2022-08-21T14:47:17;4.47;;;2.70;;
11524;SDS011;5819;49.648;8.330;2022-08-21T14:49:46;5.60;;;2.78;;
11524;SDS011;5819;49.648;8.330;2022-08-21T14:52:14;5.60;;;2.58;;
11524;SDS011;5819;49.648;8.330;2022-08-21T14:54:42;4.65;;;2.70;;
11524;SDS011;5819;49.648;8.330;2022-08-21T14:57:10;3.45;;;2.55;;
11524;SDS011;5819;49.648;8.330;2022-08-21T14:59:41;5.93;;;2.70;;
11524;SDS011;5819;49.648;8.330;2022-08-21T15:02:09;4.97;;;2.67;;
11524;SDS011;5819;49.648;8.330;2022-08-21T15:04:38;3.85;;;2.60;;
11524;SDS011;5819;49.648;8.330;2022-08-21T15:07:08;4.53;;;2.67;;
11524;SDS011;5819;49.648;8.330;2022-08-21T15:09:36;6.53;;;2.88;;
11524;SDS011;5819;49.648;8.330;2022-08-21T15:12:04;6.03;;;2.72;;
11524;SDS011;5819;49.648;8.330;2022-08-21T15:14:34;7.03;;;2.90;;
11524;SDS011;5819;49.648;8.330;2022-08-21T15:17:07;5.75;;;2.60;;
11524;SDS011;5819;49.648;8.330;2022-08-21T15:19:36;7.03;;;2.85;;
11524;SDS011;5819;49.648;8.330;2022-08-21T15:22:04;6.50;;;2.88;;
11524;SDS011;5819;49.648;8.330;2022-08-21T15:24:44;4.50;;;2.60;;
11524;SDS011;5819;49.648;8.330;2022-08-21T15:27:13;5.00;;;2.92;;
11524;SDS011;5819;49.648;8.330;2022-08-21T15:29:43;4.55;;;2.50;;
11524;SDS011;5819;49.648;8.330;2022-08-21T15:32:18;5.07;;;2.90;;